Time;durP1;ratioP1;P1;durP2;ratioP2;P2;SDS_P1;SDS_P2;PMS_P1;PMS_P2;Temp;Humidity;BMP_temperature;BMP_pressure;BME280_temperature;BME280_humidity;BME280_pressure;Samples;Min_cycle;Max_cycle;Signal;HPM_P1;HPM_P2
2023/06/04 00:02:43;0.00;0.00;0.62;0.00;0.00;0.62;4.10;2.27;;;25.80;16.40;;;;;;2256305;61;20386;-62
2023/06/04 00:05:27;0.00;0.00;0.62;0.00;0.00;0.62;2.97;2.03;;;25.80;16.40;;;;;;2255676;61;20392;-63
2023/06/04 00:08:12;0.00;0.00;0.62;0.00;0.00;0.62;3.00;2.20;;;25.80;16.40;;;;;;2256217;61;20370;-63
2023/06/04 00:10:57;0.00;0.00;0.62;0.00;0.00;0.62;6.00;1.93;;;25.80;16.40;;;;;;2255660;61;20385;-61
2023/06/04 00:13:43;0.00;0.00;0.62;0.00;0.00;0.62;2.50;1.90;;;25.80;16.40;;;;;;2255904;61;20874;-62
2023/06/04 00:16:28;0.00;0.00;0.62;0.00;0.00;0.62;2.37;1.87;;;25.80;16.40;;;;;;2256133;61;20701;-63
2023/06/04 00:19:13;0.00;0.00;0.62;0.00;0.00;0.62;2.93;2.07;;;25.80;16.40;;;;;;2256120;61;20417;-63
2023/06/04 00:21:58;0.00;0.00;0.62;0.00;0.00;0.62;2.70;2.03;;;25.80;16.40;;;;;;2255551;61;20439;-62
2023/06/04 00:24:43;0.00;0.00;0.62;0.00;0.00;0.62;2.40;2.00;;;25.80;16.40;;;;;;2256847;61;20369;-63
2023/06/04 00:27:28;0.00;0.00;0.62;0.00;0.00;0.62;2.57;2.03;;;25.80;16.40;;;;;;2256848;61;20346;-64
2023/06/04 00:30:15;0.00;0.00;0.62;0.00;0.00;0.62;2.20;1.90;;;25.80;16.50;;;;;;2256576;61;20393;-63
2023/06/04 00:33:00;0.00;0.00;0.62;0.00;0.00;0.62;3.30;1.77;;;25.80;16.50;;;;;;2256707;61;20378;-62
2023/06/04 00:35:45;0.00;0.00;0.62;0.00;0.00;0.62;2.20;1.70;;;25.70;16.40;;;;;;2256769;61;20412;-63
2023/06/04 00:38:30;0.00;0.00;0.62;0.00;0.00;0.62;2.13;1.73;;;25.70;16.40;;;;;;2256866;61;20484;-63
2023/06/04 00:41:15;0.00;0.00;0.62;0.00;0.00;0.62;2.40;1.80;;;25.70;16.40;;;;;;2256185;61;20432;-63
2023/06/04 00:44:01;0.00;0.00;0.62;0.00;0.00;0.62;2.47;2.23;;;25.80;16.50;;;;;;2256724;61;20394;-62
2023/06/04 00:46:49;0.00;0.00;0.62;0.00;0.00;0.62;2.10;1.90;;;25.80;16.50;;;;;;2256941;61;20370;-64
2023/06/04 00:49:34;0.00;0.00;0.62;0.00;0.00;0.62;3.23;1.80;;;25.80;16.50;;;;;;2256313;61;20370;-62
2023/06/04 00:52:18;0.00;0.00;0.62;0.00;0.00;0.62;2.73;1.63;;;25.70;16.40;;;;;;2256601;61;20425;-63
2023/06/04 00:55:04;0.00;0.00;0.62;0.00;0.00;0.62;2.33;1.70;;;25.70;16.50;;;;;;2256890;61;20366;-63
2023/06/04 00:57:49;0.00;0.00;0.62;0.00;0.00;0.62;2.70;1.97;;;25.70;16.50;;;;;;2256755;61;20412;-63
2023/06/04 01:00:34;0.00;0.00;0.62;0.00;0.00;0.62;2.20;1.50;;;25.70;16.50;;;;;;2256566;61;20914;-62
2023/06/04 01:03:25;0.00;0.00;0.62;0.00;0.00;0.62;1.90;1.60;;;25.70;16.50;;;;;;2256842;61;20386;-63
2023/06/04 01:06:21;0.00;0.00;0.62;0.00;0.00;0.62;2.00;1.57;;;25.70;16.50;;;;;;2256178;61;20405;-63
2023/06/04 01:09:06;0.00;0.00;0.62;0.00;0.00;0.62;2.83;2.00;;;25.70;16.50;;;;;;2256918;61;20967;-64
2023/06/04 01:11:50;0.00;0.00;0.62;0.00;0.00;0.62;2.30;1.80;;;25.70;16.50;;;;;;2255942;61;20791;-62
2023/06/04 01:14:35;0.00;0.00;0.62;0.00;0.00;0.62;2.37;1.77;;;25.70;16.50;;;;;;2256992;61;20373;-62
2023/06/04 01:17:36;0.00;0.00;0.62;0.00;0.00;0.62;1.97;1.43;;;25.70;16.50;;;;;;2256829;61;20450;-62
2023/06/04 01:20:33;0.00;0.00;0.62;0.00;0.00;0.62;2.13;1.33;;;25.70;16.60;;;;;;2256532;61;20768;-63
2023/06/04 01:23:45;0.00;0.00;0.62;0.00;0.00;0.62;2.37;1.83;;;25.70;16.60;;;;;;2256716;61;20394;-62
2023/06/04 01:26:31;0.00;0.00;0.62;0.00;0.00;0.62;3.17;2.40;;;25.70;16.60;;;;;;2256461;61;20913;-62
2023/06/04 01:29:16;0.00;0.00;0.62;0.00;0.00;0.62;2.17;1.47;;;25.70;16.60;;;;;;2256865;61;20361;-62
2023/06/04 01:32:01;0.00;0.00;0.62;0.00;0.00;0.62;2.10;1.50;;;25.70;16.60;;;;;;2256380;61;20482;-63
2023/06/04 01:34:46;0.00;0.00;0.62;0.00;0.00;0.62;2.17;1.70;;;25.70;17.10;;;;;;2256435;61;20558;-63
2023/06/04 01:37:32;0.00;0.00;0.62;0.00;0.00;0.62;2.63;1.53;;;25.70;16.60;;;;;;2256763;61;20450;-63
2023/06/04 01:40:18;0.00;0.00;0.62;0.00;0.00;0.62;2.43;1.80;;;25.60;16.60;;;;;;2256549;61;20370;-64
2023/06/04 01:43:03;0.00;0.00;0.62;0.00;0.00;0.62;2.30;1.97;;;25.60;16.60;;;;;;2256077;61;20432;-63
2023/06/04 01:45:50;0.00;0.00;0.62;0.00;0.00;0.62;2.17;1.63;;;25.60;16.60;;;;;;2256317;61;20777;-62
2023/06/04 01:48:34;0.00;0.00;0.62;0.00;0.00;0.62;2.53;1.83;;;25.60;16.60;;;;;;2256838;61;20390;-63
2023/06/04 01:51:20;0.00;0.00;0.62;0.00;0.00;0.62;1.90;1.50;;;25.60;16.60;;;;;;2256248;61;20968;-63
2023/06/04 01:54:06;0.00;0.00;0.62;0.00;0.00;0.62;2.80;1.60;;;25.60;16.60;;;;;;2256897;61;20390;-63
2023/06/04 01:56:50;0.00;0.00;0.62;0.00;0.00;0.62;2.43;1.60;;;25.60;16.70;;;;;;2256545;61;20374;-63
2023/06/04 01:59:36;0.00;0.00;0.62;0.00;0.00;0.62;3.63;1.77;;;25.60;16.70;;;;;;2256416;61;20377;-67
2023/06/04 02:02:21;0.00;0.00;0.62;0.00;0.00;0.62;1.83;1.30;;;25.60;16.70;;;;;;2255847;61;20948;-62
2023/06/04 02:05:07;0.00;0.00;0.62;0.00;0.00;0.62;2.33;1.80;;;25.60;16.70;;;;;;2256531;61;20409;-63
2023/06/04 02:07:52;0.00;0.00;0.62;0.00;0.00;0.62;2.03;1.47;;;25.60;16.70;;;;;;2256186;61;20392;-64
2023/06/04 02:10:39;0.00;0.00;0.62;0.00;0.00;0.62;2.70;1.87;;;25.60;16.70;;;;;;2256588;61;20778;-62
2023/06/04 02:13:23;0.00;0.00;0.62;0.00;0.00;0.62;2.07;1.70;;;25.60;16.70;;;;;;2256166;61;20347;-62
2023/06/04 02:16:09;0.00;0.00;0.62;0.00;0.00;0.62;2.20;1.80;;;25.50;16.70;;;;;;2256386;61;20435;-61
2023/06/04 02:18:53;0.00;0.00;0.62;0.00;0.00;0.62;2.20;1.50;;;25.60;16.70;;;;;;2255615;61;20365;-63
2023/06/04 02:21:38;0.00;0.00;0.62;0.00;0.00;0.62;2.23;1.70;;;25.60;16.80;;;;;;2255774;61;20462;-60
2023/06/04 02:24:22;0.00;0.00;0.62;0.00;0.00;0.62;2.50;1.60;;;25.60;16.80;;;;;;2256310;61;20361;-62
2023/06/04 02:27:10;0.00;0.00;0.62;0.00;0.00;0.62;2.03;1.40;;;25.50;16.70;;;;;;2255933;61;20401;-63
2023/06/04 02:29:55;0.00;0.00;0.62;0.00;0.00;0.62;2.23;1.50;;;25.60;16.80;;;;;;2256149;61;20412;-63
2023/06/04 02:32:40;0.00;0.00;0.62;0.00;0.00;0.62;2.37;1.67;;;25.50;16.80;;;;;;2256439;61;20448;-63
2023/06/04 02:35:25;0.00;0.00;0.62;0.00;0.00;0.62;2.23;1.60;;;25.50;16.80;;;;;;2256139;61;20417;-63
2023/06/04 02:38:10;0.00;0.00;0.62;0.00;0.00;0.62;2.00;1.63;;;25.50;16.80;;;;;;2256581;61;20369;-63
2023/06/04 02:40:55;0.00;0.00;0.62;0.00;0.00;0.62;2.03;1.37;;;25.50;16.80;;;;;;2256160;61;20465;-63
2023/06/04 02:43:41;0.00;0.00;0.62;0.00;0.00;0.62;2.00;1.50;;;25.50;16.80;;;;;;2256374;61;21252;-63
2023/06/04 02:46:26;0.00;0.00;0.62;0.00;0.00;0.62;2.13;1.70;;;25.50;16.80;;;;;;2256372;61;20860;-63
2023/06/04 02:49:13;0.00;0.00;0.62;0.00;0.00;0.62;2.20;1.63;;;25.50;16.80;;;;;;2256536;61;20417;-63
2023/06/04 02:51:58;0.00;0.00;0.62;0.00;0.00;0.62;3.30;1.57;;;25.50;16.80;;;;;;2255716;61;20460;-62
2023/06/04 02:54:43;0.00;0.00;0.62;0.00;0.00;0.62;2.30;1.73;;;25.50;16.90;;;;;;2256667;61;20446;-64
2023/06/04 02:57:27;0.00;0.00;0.62;0.00;0.00;0.62;1.90;1.50;;;25.50;16.90;;;;;;2256382;61;20365;-63
2023/06/04 03:00:16;0.00;0.00;0.62;0.00;0.00;0.62;2.33;1.70;;;25.50;16.90;;;;;;2256285;61;21050;-62
2023/06/04 03:03:01;0.00;0.00;0.62;0.00;0.00;0.62;2.27;1.40;;;25.50;16.90;;;;;;2255968;61;20394;-62
2023/06/04 03:05:46;0.00;0.00;0.62;0.00;0.00;0.62;2.10;1.60;;;25.50;16.90;;;;;;2256573;61;20377;-64
2023/06/04 03:08:31;0.00;0.00;0.62;0.00;0.00;0.62;1.97;1.30;;;25.50;16.90;;;;;;2255945;61;20365;-63
2023/06/04 03:11:16;0.00;0.00;0.62;0.00;0.00;0.62;2.30;1.50;;;25.50;16.90;;;;;;2255628;61;20432;-67
2023/06/04 03:14:01;0.00;0.00;0.62;0.00;0.00;0.62;2.20;1.50;;;25.50;17.00;;;;;;2256460;61;20362;-66
2023/06/04 03:16:46;0.00;0.00;0.62;0.00;0.00;0.62;2.20;1.70;;;25.50;17.00;;;;;;2256589;61;20458;-62
2023/06/04 03:19:31;0.00;0.00;0.62;0.00;0.00;0.62;2.33;1.33;;;25.50;17.00;;;;;;2256275;61;20373;-60
2023/06/04 03:22:16;0.00;0.00;0.62;0.00;0.00;0.62;2.27;1.53;;;25.50;17.00;;;;;;2256109;61;20481;-65
2023/06/04 03:25:01;0.00;0.00;0.62;0.00;0.00;0.62;2.53;1.23;;;25.40;16.90;;;;;;2256583;61;20885;-61
2023/06/04 03:27:45;0.00;0.00;0.62;0.00;0.00;0.62;1.93;1.50;;;25.40;16.90;;;;;;2256518;61;20370;-63
2023/06/04 03:30:30;0.00;0.00;0.62;0.00;0.00;0.62;1.77;1.33;;;25.40;17.00;;;;;;2256025;61;20903;-63
2023/06/04 03:33:19;0.00;0.00;0.62;0.00;0.00;0.62;2.20;1.50;;;25.40;17.00;;;;;;2255767;61;20427;-63
2023/06/04 03:36:05;0.00;0.00;0.62;0.00;0.00;0.62;2.10;1.73;;;25.40;17.00;;;;;;2256585;61;20413;-63
2023/06/04 03:38:50;0.00;0.00;0.62;0.00;0.00;0.62;1.90;1.43;;;25.40;17.00;;;;;;2255873;61;20803;-63
2023/06/04 03:41:35;0.00;0.00;0.62;0.00;0.00;0.62;2.10;1.37;;;25.40;17.00;;;;;;2252707;61;20382;-63
2023/06/04 03:44:21;0.00;0.00;0.62;0.00;0.00;0.62;1.77;1.53;;;25.40;17.00;;;;;;2256024;61;20442;-62
2023/06/04 03:47:06;0.00;0.00;0.62;0.00;0.00;0.62;2.30;1.47;;;25.40;17.10;;;;;;2256019;61;20776;-63
2023/06/04 03:49:52;0.00;0.00;0.62;0.00;0.00;0.62;1.80;1.30;;;25.40;17.10;;;;;;2255876;61;20449;-63
2023/06/04 03:52:37;0.00;0.00;0.62;0.00;0.00;0.62;2.10;1.33;;;25.40;17.10;;;;;;2256443;61;20949;-62
2023/06/04 03:55:24;0.00;0.00;0.62;0.00;0.00;0.62;2.40;1.43;;;25.40;17.10;;;;;;2255817;61;20534;-63
2023/06/04 03:58:11;0.00;0.00;0.62;0.00;0.00;0.62;1.87;1.27;;;25.40;17.10;;;;;;2256683;61;20497;-63
2023/06/04 04:00:58;0.00;0.00;0.62;0.00;0.00;0.62;2.00;1.37;;;25.40;17.10;;;;;;2256304;61;20436;-63
2023/06/04 04:03:43;0.00;0.00;0.62;0.00;0.00;0.62;1.80;1.30;;;25.40;17.20;;;;;;2256478;61;20397;-63
2023/06/04 04:06:30;0.00;0.00;0.62;0.00;0.00;0.62;1.80;1.40;;;25.30;17.20;;;;;;2256783;61;20384;-63
2023/06/04 04:09:15;0.00;0.00;0.62;0.00;0.00;0.62;1.80;1.27;;;25.40;17.20;;;;;;2256477;61;20415;-61
2023/06/04 04:12:00;0.00;0.00;0.62;0.00;0.00;0.62;1.80;1.40;;;25.40;17.30;;;;;;2256747;61;20417;-62
2023/06/04 04:14:47;0.00;0.00;0.62;0.00;0.00;0.62;1.90;1.47;;;25.40;17.20;;;;;;2256912;61;20941;-62
2023/06/04 04:17:32;0.00;0.00;0.62;0.00;0.00;0.62;1.80;1.30;;;25.30;17.20;;;;;;2256519;61;20473;-63
2023/06/04 04:20:18;0.00;0.00;0.62;0.00;0.00;0.62;2.00;1.53;;;25.40;17.30;;;;;;2256969;61;20829;-63
2023/06/04 04:23:09;0.00;0.00;0.62;0.00;0.00;0.62;2.10;1.70;;;25.30;17.20;;;;;;2256415;61;20450;-63
2023/06/04 04:25:58;0.00;0.00;0.62;0.00;0.00;0.62;1.70;1.30;;;25.30;17.20;;;;;;2256358;61;20366;-64
2023/06/04 04:28:43;0.00;0.00;0.62;0.00;0.00;0.62;2.13;1.40;;;25.30;17.20;;;;;;2256676;61;20894;-64
2023/06/04 04:31:28;0.00;0.00;0.62;0.00;0.00;0.62;1.97;1.20;;;25.30;17.30;;;;;;2256664;61;20420;-63
2023/06/04 04:34:14;0.00;0.00;0.62;0.00;0.00;0.62;1.97;1.43;;;25.30;17.30;;;;;;2256585;61;20902;-65
2023/06/04 04:37:02;0.00;0.00;0.62;0.00;0.00;0.62;4.20;1.60;;;25.30;17.30;;;;;;2256481;61;20345;-62
2023/06/04 04:39:52;0.00;0.00;0.62;0.00;0.00;0.62;2.43;1.60;;;25.30;17.30;;;;;;2256421;61;20784;-63
2023/06/04 04:42:39;0.00;0.00;0.62;0.00;0.00;0.62;2.17;1.37;;;25.30;17.30;;;;;;2256367;61;20394;-65
2023/06/04 04:45:26;0.00;0.00;0.62;0.00;0.00;0.62;2.13;1.60;;;25.30;17.30;;;;;;2256469;61;20470;-63
2023/06/04 04:48:14;0.00;0.00;0.62;0.00;0.00;0.62;2.57;1.73;;;25.30;17.40;;;;;;2256371;61;20362;-64
2023/06/04 04:50:59;0.00;0.00;0.62;0.00;0.00;0.62;1.83;1.43;;;25.30;17.30;;;;;;2256407;61;20440;-63
2023/06/04 04:53:44;0.00;0.00;0.62;0.00;0.00;0.62;2.00;1.50;;;25.30;17.40;;;;;;2256705;61;20570;-62
2023/06/04 04:56:36;0.00;0.00;0.62;0.00;0.00;0.62;1.87;1.40;;;25.30;17.40;;;;;;2256549;61;20396;-62
2023/06/04 04:59:22;0.00;0.00;0.62;0.00;0.00;0.62;2.10;1.40;;;25.30;17.40;;;;;;2256609;61;20450;-63
2023/06/04 05:02:07;0.00;0.00;0.62;0.00;0.00;0.62;2.00;1.40;;;25.30;17.90;;;;;;2256029;61;20794;-62
2023/06/04 05:04:51;0.00;0.00;0.62;0.00;0.00;0.62;1.77;1.20;;;25.30;17.40;;;;;;2256752;61;20370;-63
2023/06/04 05:07:36;0.00;0.00;0.62;0.00;0.00;0.62;1.80;1.40;;;25.30;17.40;;;;;;2256480;61;20366;-63
2023/06/04 05:10:21;0.00;0.00;0.62;0.00;0.00;0.62;3.40;1.30;;;25.30;17.40;;;;;;2256122;61;20409;-65
2023/06/04 05:13:08;0.00;0.00;0.62;0.00;0.00;0.62;1.90;1.40;;;25.30;17.40;;;;;;2256571;61;20447;-63
2023/06/04 05:16:06;0.00;0.00;0.62;0.00;0.00;0.62;1.90;1.40;;;25.30;17.40;;;;;;2256507;61;20377;-62
2023/06/04 05:18:51;0.00;0.00;0.62;0.00;0.00;0.62;1.90;1.37;;;25.30;17.40;;;;;;2256565;61;20385;-63
2023/06/04 05:21:39;0.00;0.00;0.62;0.00;0.00;0.62;1.77;1.30;;;25.30;17.40;;;;;;2255987;61;20447;-65
2023/06/04 05:24:26;0.00;0.00;0.62;0.00;0.00;0.62;1.97;1.20;;;25.30;17.40;;;;;;2256473;61;20361;-61
2023/06/04 05:27:11;0.00;0.00;0.62;0.00;0.00;0.62;2.20;1.20;;;25.30;17.50;;;;;;2256475;61;20460;-63
2023/06/04 05:29:58;0.00;0.00;0.62;0.00;0.00;0.62;1.93;1.27;;;25.30;17.50;;;;;;2256530;61;20420;-63
2023/06/04 05:32:43;0.00;0.00;0.62;0.00;0.00;0.62;1.63;1.30;;;25.30;17.50;;;;;;2256025;61;20852;-63
2023/06/04 05:35:32;0.00;0.00;0.62;0.00;0.00;0.62;1.83;1.40;;;25.30;18.00;;;;;;2256368;61;20370;-64
2023/06/04 05:38:18;0.00;0.00;0.62;0.00;0.00;0.62;2.03;1.43;;;25.30;17.50;;;;;;2256505;61;20787;-62
2023/06/04 05:41:04;0.00;0.00;0.62;0.00;0.00;0.62;2.13;1.33;;;25.30;17.50;;;;;;2255484;61;20406;-61
2023/06/04 05:43:52;0.00;0.00;0.62;0.00;0.00;0.62;2.53;1.50;;;25.30;17.50;;;;;;2255768;61;20405;-61
2023/06/04 05:46:38;0.00;0.00;0.62;0.00;0.00;0.62;2.23;1.47;;;25.30;17.50;;;;;;2255743;61;20366;-65
2023/06/04 05:49:24;0.00;0.00;0.62;0.00;0.00;0.62;1.80;1.30;;;25.30;17.50;;;;;;2255867;61;20361;-61
2023/06/04 05:52:10;0.00;0.00;0.62;0.00;0.00;0.62;3.03;1.60;;;25.30;17.50;;;;;;2255634;61;20389;-62
2023/06/04 05:54:55;0.00;0.00;0.62;0.00;0.00;0.62;1.70;1.20;;;25.30;17.50;;;;;;2255998;61;20494;-62
2023/06/04 05:57:40;0.00;0.00;0.62;0.00;0.00;0.62;1.90;1.37;;;25.30;17.60;;;;;;2256160;61;20362;-61
2023/06/04 06:00:25;0.00;0.00;0.62;0.00;0.00;0.62;2.37;1.73;;;25.30;17.60;;;;;;2256127;61;20458;-62
2023/06/04 06:03:12;0.00;0.00;0.62;0.00;0.00;0.62;2.20;1.50;;;25.30;17.60;;;;;;2255874;61;20382;-63
2023/06/04 06:06:02;0.00;0.00;0.62;0.00;0.00;0.62;2.40;1.37;;;25.30;17.60;;;;;;2256184;61;20886;-63
2023/06/04 06:08:47;0.00;0.00;0.62;0.00;0.00;0.62;1.60;1.10;;;25.30;17.60;;;;;;2255894;61;20421;-66
2023/06/04 06:11:32;0.00;0.00;0.62;0.00;0.00;0.62;2.00;1.40;;;25.30;17.60;;;;;;2255564;61;20390;-63
2023/06/04 06:14:16;0.00;0.00;0.62;0.00;0.00;0.62;2.13;1.00;;;25.30;17.60;;;;;;2256101;61;20416;-62
2023/06/04 06:17:02;0.00;0.00;0.62;0.00;0.00;0.62;2.33;1.20;;;25.30;17.60;;;;;;2256476;61;20874;-63
2023/06/04 06:19:49;0.00;0.00;0.62;0.00;0.00;0.62;1.50;0.97;;;25.30;17.60;;;;;;2256031;61;20425;-62
2023/06/04 06:22:35;0.00;0.00;0.62;0.00;0.00;0.62;2.17;1.50;;;25.30;17.60;;;;;;2255958;61;20390;-63
2023/06/04 06:25:21;0.00;0.00;0.62;0.00;0.00;0.62;1.70;1.20;;;25.30;17.60;;;;;;2256032;61;20386;-62
2023/06/04 06:28:12;0.00;0.00;0.62;0.00;0.00;0.62;1.70;1.20;;;25.30;17.60;;;;;;2255995;61;20901;-63
2023/06/04 06:30:57;0.00;0.00;0.62;0.00;0.00;0.62;1.90;1.43;;;25.30;17.70;;;;;;2255546;61;20869;-66
2023/06/04 06:33:42;0.00;0.00;0.62;0.00;0.00;0.62;1.60;1.13;;;25.30;17.60;;;;;;2256382;61;20803;-63
2023/06/04 06:36:28;0.00;0.00;0.62;0.00;0.00;0.62;2.00;1.20;;;25.30;17.60;;;;;;2256711;61;20397;-63
2023/06/04 06:39:13;0.00;0.00;0.62;0.00;0.00;0.62;1.60;1.20;;;25.30;17.70;;;;;;2256444;61;20431;-62
2023/06/04 06:41:58;0.00;0.00;0.62;0.00;0.00;0.62;2.00;1.40;;;25.30;17.70;;;;;;2256513;61;20926;-62
2023/06/04 06:44:46;0.00;0.00;0.62;0.00;0.00;0.62;1.70;1.20;;;25.30;17.70;;;;;;2256172;61;20516;-62
2023/06/04 06:47:31;0.00;0.00;0.62;0.00;0.00;0.62;1.53;1.00;;;25.30;17.70;;;;;;2256712;61;20436;-62
2023/06/04 06:50:16;0.00;0.00;0.62;0.00;0.00;0.62;1.90;1.10;;;25.30;17.70;;;;;;2256269;61;20369;-63
2023/06/04 06:53:02;0.00;0.00;0.62;0.00;0.00;0.62;2.27;1.00;;;25.30;17.70;;;;;;2256356;61;20370;-61
2023/06/04 06:55:47;0.00;0.00;0.62;0.00;0.00;0.62;1.70;1.10;;;25.30;17.70;;;;;;2256667;61;20374;-63
2023/06/04 06:58:32;0.00;0.00;0.62;0.00;0.00;0.62;1.90;1.43;;;25.30;17.80;;;;;;2256911;61;20354;-62
2023/06/04 07:01:17;0.00;0.00;0.62;0.00;0.00;0.62;1.77;1.10;;;25.30;17.80;;;;;;2255783;61;20385;-62
2023/06/04 07:04:02;0.00;0.00;0.62;0.00;0.00;0.62;2.47;1.33;;;25.30;17.80;;;;;;2256366;61;20462;-62
2023/06/04 07:06:47;0.00;0.00;0.62;0.00;0.00;0.62;1.70;1.13;;;25.30;17.80;;;;;;2256731;61;20362;-63
2023/06/04 07:09:33;0.00;0.00;0.62;0.00;0.00;0.62;2.30;1.37;;;25.30;17.80;;;;;;2256100;61;20370;-62
2023/06/04 07:12:17;0.00;0.00;0.62;0.00;0.00;0.62;2.47;1.60;;;25.30;17.80;;;;;;2256230;61;20497;-61
2023/06/04 07:15:02;0.00;0.00;0.62;0.00;0.00;0.62;1.70;1.10;;;25.30;17.80;;;;;;2256400;61;20370;-63
2023/06/04 07:17:48;0.00;0.00;0.62;0.00;0.00;0.62;2.00;1.30;;;25.40;17.40;;;;;;2256097;61;20358;-63
2023/06/04 07:20:32;0.00;0.00;0.62;0.00;0.00;0.62;1.60;1.10;;;25.30;17.80;;;;;;2256325;61;20874;-62
2023/06/04 07:23:17;0.00;0.00;0.62;0.00;0.00;0.62;2.10;1.23;;;25.30;17.80;;;;;;2256336;61;20460;-63
2023/06/04 07:26:03;0.00;0.00;0.62;0.00;0.00;0.62;1.70;1.30;;;25.30;17.80;;;;;;2256543;61;20366;-63
2023/06/04 07:28:48;0.00;0.00;0.62;0.00;0.00;0.62;1.97;1.10;;;25.30;17.80;;;;;;2256881;61;20393;-62
2023/06/04 07:31:32;0.00;0.00;0.62;0.00;0.00;0.62;1.50;0.97;;;25.40;17.90;;;;;;2255803;61;20386;-62
2023/06/04 07:34:17;0.00;0.00;0.62;0.00;0.00;0.62;2.00;1.40;;;25.40;17.90;;;;;;2256657;61;20365;-61
2023/06/04 07:37:01;0.00;0.00;0.62;0.00;0.00;0.62;1.73;1.03;;;25.40;17.90;;;;;;2256518;61;20382;-63
2023/06/04 07:39:46;0.00;0.00;0.62;0.00;0.00;0.62;1.70;1.10;;;25.40;17.90;;;;;;2256437;61;21006;-63
2023/06/04 07:42:32;0.00;0.00;0.62;0.00;0.00;0.62;1.50;1.10;;;25.40;17.90;;;;;;2256184;61;21056;-63
2023/06/04 07:45:17;0.00;0.00;0.62;0.00;0.00;0.62;1.63;1.10;;;25.40;17.90;;;;;;2256347;61;20374;-63
2023/06/04 07:48:02;0.00;0.00;0.62;0.00;0.00;0.62;1.73;1.13;;;25.40;17.90;;;;;;2256630;61;20755;-62
2023/06/04 07:50:47;0.00;0.00;0.62;0.00;0.00;0.62;1.50;1.00;;;25.40;17.90;;;;;;2256311;61;20445;-66
2023/06/04 07:53:31;0.00;0.00;0.62;0.00;0.00;0.62;1.50;1.00;;;25.40;17.90;;;;;;2256397;61;20458;-63
2023/06/04 07:56:16;0.00;0.00;0.62;0.00;0.00;0.62;1.60;1.20;;;25.40;17.90;;;;;;2256491;61;20429;-63
2023/06/04 07:59:02;0.00;0.00;0.62;0.00;0.00;0.62;1.83;1.30;;;25.40;17.90;;;;;;2256538;61;20894;-63
2023/06/04 08:01:46;0.00;0.00;0.62;0.00;0.00;0.62;1.83;1.20;;;25.40;17.90;;;;;;2256037;61;20410;-62
2023/06/04 08:04:31;0.00;0.00;0.62;0.00;0.00;0.62;2.10;1.47;;;25.40;17.90;;;;;;2256196;61;20432;-62
2023/06/04 08:07:15;0.00;0.00;0.62;0.00;0.00;0.62;2.17;1.10;;;25.40;17.90;;;;;;2256589;61;20509;-62
2023/06/04 08:10:00;0.00;0.00;0.62;0.00;0.00;0.62;1.50;1.03;;;25.40;17.90;;;;;;2256347;61;20442;-62
2023/06/04 08:12:45;0.00;0.00;0.62;0.00;0.00;0.62;1.50;1.00;;;25.40;17.90;;;;;;2256328;61;20909;-63
2023/06/04 08:15:31;0.00;0.00;0.62;0.00;0.00;0.62;1.63;1.10;;;25.40;17.90;;;;;;2256330;61;20361;-62
2023/06/04 08:18:16;0.00;0.00;0.62;0.00;0.00;0.62;2.00;1.20;;;25.40;17.90;;;;;;2256311;61;20381;-62
2023/06/04 08:21:01;0.00;0.00;0.62;0.00;0.00;0.62;1.60;1.13;;;25.40;17.90;;;;;;2255998;61;20386;-65
2023/06/04 08:23:47;0.00;0.00;0.62;0.00;0.00;0.62;2.10;1.30;;;25.40;17.90;;;;;;2256271;61;20374;-63
2023/06/04 08:26:32;0.00;0.00;0.62;0.00;0.00;0.62;1.40;0.90;;;25.40;18.00;;;;;;2256376;61;20412;-62
2023/06/04 08:29:17;0.00;0.00;0.62;0.00;0.00;0.62;1.60;1.10;;;25.40;18.00;;;;;;2256330;61;20362;-62
2023/06/04 08:32:04;0.00;0.00;0.62;0.00;0.00;0.62;1.80;1.13;;;25.40;18.00;;;;;;2256143;61;20405;-63
2023/06/04 08:34:48;0.00;0.00;0.62;0.00;0.00;0.62;1.83;1.40;;;25.40;18.00;;;;;;2256419;61;20910;-61
2023/06/04 08:37:33;0.00;0.00;0.62;0.00;0.00;0.62;2.10;1.20;;;25.40;18.00;;;;;;2256356;61;20416;-61
2023/06/04 08:40:18;0.00;0.00;0.62;0.00;0.00;0.62;1.50;1.13;;;25.40;18.00;;;;;;2256139;61;20501;-63
2023/06/04 08:43:05;0.00;0.00;0.62;0.00;0.00;0.62;2.20;1.23;;;25.40;18.00;;;;;;2256572;61;20805;-62
2023/06/04 08:45:53;0.00;0.00;0.62;0.00;0.00;0.62;1.60;1.10;;;25.40;18.00;;;;;;2257099;61;20814;-63
2023/06/04 08:48:39;0.00;0.00;0.62;0.00;0.00;0.62;1.60;1.20;;;25.40;18.00;;;;;;2257256;61;20918;-62
2023/06/04 08:51:24;0.00;0.00;0.62;0.00;0.00;0.62;1.87;1.23;;;25.40;18.00;;;;;;2256727;61;20439;-62
2023/06/04 08:54:09;0.00;0.00;0.62;0.00;0.00;0.62;1.50;1.10;;;25.40;18.00;;;;;;2257043;61;20369;-62
2023/06/04 08:56:57;0.00;0.00;0.62;0.00;0.00;0.62;1.67;1.00;;;25.40;18.00;;;;;;2256991;61;20370;-63
2023/06/04 08:59:42;0.00;0.00;0.62;0.00;0.00;0.62;2.07;1.50;;;25.40;18.00;;;;;;2257209;61;20481;-62
2023/06/04 09:02:28;0.00;0.00;0.62;0.00;0.00;0.62;1.60;1.10;;;25.40;18.00;;;;;;2256600;61;20512;-62
2023/06/04 09:05:20;0.00;0.00;0.62;0.00;0.00;0.62;1.40;1.00;;;25.40;18.00;;;;;;2256924;61;20422;-62
2023/06/04 09:08:08;0.00;0.00;0.62;0.00;0.00;0.62;2.00;1.10;;;25.40;18.00;;;;;;2257000;61;20870;-62
2023/06/04 09:10:55;0.00;0.00;0.62;0.00;0.00;0.62;1.53;0.97;;;25.50;18.10;;;;;;2256645;61;20381;-61
2023/06/04 09:13:42;0.00;0.00;0.62;0.00;0.00;0.62;1.57;1.07;;;25.40;18.00;;;;;;2256826;61;20853;-63
2023/06/04 09:16:28;0.00;0.00;0.62;0.00;0.00;0.62;1.40;1.03;;;25.50;18.10;;;;;;2257144;61;20378;-62
2023/06/04 09:19:14;0.00;0.00;0.62;0.00;0.00;0.62;1.80;1.30;;;25.50;18.10;;;;;;2257073;61;20388;-66
2023/06/04 09:22:03;0.00;0.00;0.62;0.00;0.00;0.62;2.13;1.43;;;25.50;18.10;;;;;;2256611;61;20389;-62
2023/06/04 09:24:53;0.00;0.00;0.62;0.00;0.00;0.62;1.67;1.20;;;25.50;18.00;;;;;;2256952;61;20416;-63
2023/06/04 09:27:40;0.00;0.00;0.62;0.00;0.00;0.62;1.50;1.20;;;25.50;18.00;;;;;;2257187;61;20413;-62
2023/06/04 09:30:25;0.00;0.00;0.62;0.00;0.00;0.62;3.00;1.20;;;25.50;18.00;;;;;;2256943;61;20346;-62
2023/06/04 09:33:12;0.00;0.00;0.62;0.00;0.00;0.62;1.60;1.13;;;25.50;18.00;;;;;;2256776;61;20448;-63
2023/06/04 09:35:57;0.00;0.00;0.62;0.00;0.00;0.62;2.20;1.60;;;25.50;18.00;;;;;;2256775;61;20366;-62
2023/06/04 09:38:44;0.00;0.00;0.62;0.00;0.00;0.62;1.70;1.20;;;25.50;18.00;;;;;;2256864;61;20405;-63
2023/06/04 09:41:32;0.00;0.00;0.62;0.00;0.00;0.62;1.67;1.00;;;25.50;18.00;;;;;;2256064;61;20906;-64
2023/06/04 09:44:17;0.00;0.00;0.62;0.00;0.00;0.62;1.60;1.10;;;25.50;18.00;;;;;;2256678;61;20397;-62
2023/06/04 09:47:02;0.00;0.00;0.62;0.00;0.00;0.62;1.80;1.40;;;25.50;18.00;;;;;;2256809;61;20362;-62
2023/06/04 09:49:49;0.00;0.00;0.62;0.00;0.00;0.62;1.73;1.40;;;25.50;17.90;;;;;;2257093;61;20369;-63
2023/06/04 09:52:35;0.00;0.00;0.62;0.00;0.00;0.62;1.90;1.40;;;25.50;17.90;;;;;;2256783;61;20531;-63
2023/06/04 09:55:22;0.00;0.00;0.62;0.00;0.00;0.62;1.63;0.97;;;25.50;17.90;;;;;;2256760;61;20388;-63
2023/06/04 09:58:08;0.00;0.00;0.62;0.00;0.00;0.62;1.83;1.27;;;25.50;17.90;;;;;;2256828;61;20839;-62
2023/06/04 10:00:55;0.00;0.00;0.62;0.00;0.00;0.62;1.50;1.00;;;25.60;17.90;;;;;;2256567;61;20389;-62
2023/06/04 10:03:46;0.00;0.00;0.62;0.00;0.00;0.62;1.40;1.00;;;25.50;17.80;;;;;;2256973;61;20501;-62
2023/06/04 10:06:34;0.00;0.00;0.62;0.00;0.00;0.62;1.90;1.17;;;25.60;17.90;;;;;;2256280;61;20369;-61
2023/06/04 10:09:20;0.00;0.00;0.62;0.00;0.00;0.62;2.00;1.10;;;25.60;17.90;;;;;;2256270;61;20434;-63
2023/06/04 10:12:07;0.00;0.00;0.62;0.00;0.00;0.62;2.20;1.30;;;25.60;17.90;;;;;;2256589;61;20381;-59
2023/06/04 10:14:57;0.00;0.00;0.62;0.00;0.00;0.62;1.97;1.17;;;25.60;17.90;;;;;;2257013;61;20410;-62
2023/06/04 10:17:42;0.00;0.00;0.62;0.00;0.00;0.62;1.63;1.03;;;25.60;17.90;;;;;;2256818;61;20381;-64
2023/06/04 10:20:28;0.00;0.00;0.62;0.00;0.00;0.62;1.40;0.90;;;25.60;17.80;;;;;;2256655;61;20898;-63
2023/06/04 10:23:14;0.00;0.00;0.62;0.00;0.00;0.62;1.73;1.07;;;25.60;17.80;;;;;;2256946;61;20381;-64
2023/06/04 10:26:00;0.00;0.00;0.62;0.00;0.00;0.62;1.93;1.10;;;25.60;17.80;;;;;;2256819;61;20386;-62
2023/06/04 10:28:46;0.00;0.00;0.62;0.00;0.00;0.62;2.00;1.37;;;25.60;17.80;;;;;;2256809;61;20420;-63
2023/06/04 10:31:32;0.00;0.00;0.62;0.00;0.00;0.62;1.93;1.00;;;25.70;17.90;;;;;;2256607;61;20513;-63
2023/06/04 10:34:18;0.00;0.00;0.62;0.00;0.00;0.62;1.60;0.90;;;25.70;17.90;;;;;;2256965;61;20369;-64
2023/06/04 10:37:03;0.00;0.00;0.62;0.00;0.00;0.62;1.40;0.90;;;25.70;17.90;;;;;;2256803;61;20362;-64
2023/06/04 10:39:52;0.00;0.00;0.62;0.00;0.00;0.62;1.70;0.97;;;25.70;17.90;;;;;;2256512;61;20421;-64
2023/06/04 10:42:41;0.00;0.00;0.62;0.00;0.00;0.62;1.97;1.10;;;25.70;17.90;;;;;;2256408;61;20466;-62
2023/06/04 10:45:30;0.00;0.00;0.62;0.00;0.00;0.62;1.50;1.00;;;25.70;17.90;;;;;;2256815;61;20382;-62
2023/06/04 10:48:15;0.00;0.00;0.62;0.00;0.00;0.62;1.40;1.00;;;25.70;17.90;;;;;;2256751;61;20350;-65
2023/06/04 10:51:00;0.00;0.00;0.62;0.00;0.00;0.62;1.87;1.33;;;25.70;17.90;;;;;;2256417;61;20413;-63
2023/06/04 10:53:45;0.00;0.00;0.62;0.00;0.00;0.62;2.13;1.20;;;25.70;18.40;;;;;;2256375;61;20444;-63
2023/06/04 10:56:38;0.00;0.00;0.62;0.00;0.00;0.62;1.80;1.30;;;25.70;17.90;;;;;;2256366;61;20909;-62